YMAV/AVV METAR and TAF weather

Enter ICAO airport designator
Station Type Date Time Source
YMAV METAR 2020/06/05 11:00 UTC NOAA

YMAV 051100Z AUTO 31005KT 9999 // OVC051 09/07 Q1028


Station Type Date Time Source
YMAV Decoded METAR 2020/06/05 11:00 UTC NOAA

Avalon, Avalon Airport, Australia (YMAV) 38-02S 144-29E
Jun 05, 2020 - 07:00 AM EDT / 2020.06.05 1100 UTC
Wind: from the NW (310 degrees) at 6 MPH (5 KT):0
Visibility: greater than 7 mile(s):0
Sky conditions: overcast
Temperature: 48 F (9 C)
Dew Point: 44 F (7 C)
Relative Humidity: 87%
Pressure (altimeter): 30.36 in. Hg (1028 hPa)
ob: YMAV 051100Z AUTO 31005KT 9999 // OVC051 09/07 Q1028
cycle: 11

Station Type Date Time Source
YMAV TAF 2020/06/05 12:06 UTC NOAA

TAF TAF
AMD YMAV 051103Z 0512/0612 30008KT 9999 SCT030 BKN045
FM052000 26005KT 9999 -SHRA BKN020
FM060000 18007KT 9999 -SHRA BKN025
BECMG 0608/0610 16006KT 9999 NSW SCT030
TEMPO 0523/0605 5000 SHRA BKN010

Example: see airport list